createdAt,value
2016-09-28T00:00:18.345Z,99.99
2016-09-28T00:01:18.343Z,99.99
2016-09-28T00:02:18.357Z,99.99
2016-09-28T00:03:18.363Z,99.99
2016-09-28T00:04:18.353Z,99.99
2016-09-28T00:05:18.331Z,99.99
2016-09-28T00:06:18.322Z,99.99
2016-09-28T00:07:18.347Z,99.99
2016-09-28T00:08:18.350Z,99.99
2016-09-28T00:09:18.352Z,99.99
2016-09-28T00:10:18.346Z,99.99
2016-09-28T00:11:18.328Z,99.99
2016-09-28T00:12:18.326Z,99.99
2016-09-28T00:13:18.371Z,99.99
2016-09-28T00:14:18.338Z,99.99
2016-09-28T00:15:18.341Z,99.99
2016-09-28T00:16:18.375Z,99.99
2016-09-28T00:17:18.371Z,99.99
2016-09-28T00:18:18.387Z,99.99
2016-09-28T00:19:18.372Z,99.99
2016-09-28T00:20:18.392Z,99.99
2016-09-28T00:21:18.335Z,99.99
2016-09-28T00:22:18.354Z,99.99
2016-09-28T00:23:18.348Z,99.99
2016-09-28T00:24:18.367Z,99.99
2016-09-28T00:25:18.395Z,99.99
2016-09-28T00:26:18.364Z,99.99
2016-09-28T00:27:18.372Z,99.99
2016-09-28T00:28:18.375Z,99.99
2016-09-28T00:29:19.002Z,99.99
2016-09-28T00:30:18.356Z,99.99
2016-09-28T00:31:18.357Z,99.99
2016-09-28T00:32:18.377Z,99.99
2016-09-28T00:33:18.386Z,99.99
2016-09-28T00:34:18.350Z,99.99
2016-09-28T00:35:18.347Z,99.99
2016-09-28T00:36:18.356Z,99.99
2016-09-28T00:37:18.367Z,99.99
2016-09-28T00:38:18.407Z,99.99
2016-09-28T00:39:18.376Z,99.99
2016-09-28T00:40:18.363Z,99.99
2016-09-28T00:41:18.377Z,99.99
2016-09-28T00:42:18.379Z,99.99
2016-09-28T00:43:18.377Z,99.99
2016-09-28T00:44:18.380Z,99.99
2016-09-28T00:45:18.372Z,99.99
2016-09-28T00:46:18.365Z,99.99
2016-09-28T00:47:18.366Z,99.99
2016-09-28T00:48:18.391Z,99.99
2016-09-28T00:49:18.371Z,99.99
2016-09-28T00:50:18.373Z,99.99
2016-09-28T00:51:18.352Z,99.99
2016-09-28T00:52:18.367Z,99.99
2016-09-28T00:53:18.380Z,99.99
2016-09-28T00:54:18.373Z,99.99
2016-09-28T00:55:18.357Z,99.99
2016-09-28T00:56:18.351Z,99.99
2016-09-28T00:57:18.376Z,99.99
2016-09-28T00:58:18.392Z,99.99
2016-09-28T00:59:18.371Z,99.99
2016-09-28T01:00:18.367Z,99.99
2016-09-28T01:01:18.359Z,99.99
2016-09-28T01:02:18.371Z,99.99
2016-09-28T01:03:18.395Z,99.99
2016-09-28T01:04:18.379Z,99.99
2016-09-28T01:05:18.404Z,99.99
2016-09-28T01:06:18.389Z,99.99
2016-09-28T01:07:18.389Z,99.99
2016-09-28T01:08:18.395Z,99.99
2016-09-28T01:09:18.394Z,99.99
2016-09-28T01:10:18.403Z,99.99
2016-09-28T01:11:18.389Z,99.99
2016-09-28T01:12:19.183Z,99.99
2016-09-28T01:13:18.402Z,99.99
2016-09-28T01:14:18.404Z,99.99
2016-09-28T01:15:18.405Z,99.99
2016-09-28T01:16:18.401Z,99.99
2016-09-28T01:17:18.390Z,99.99
2016-09-28T01:18:18.388Z,99.99
2016-09-28T01:19:18.389Z,99.99
2016-09-28T01:20:18.383Z,99.99
2016-09-28T01:21:18.437Z,99.99
2016-09-28T01:22:18.416Z,99.99
2016-09-28T01:23:18.406Z,99.99
2016-09-28T01:24:18.428Z,99.99
2016-09-28T01:25:18.405Z,99.99
2016-09-28T01:26:18.397Z,99.99
2016-09-28T01:27:18.429Z,99.99
2016-09-28T01:28:18.389Z,99.99
2016-09-28T01:29:18.403Z,99.99
2016-09-28T01:30:18.409Z,99.99
2016-09-28T01:31:18.401Z,99.99
2016-09-28T01:32:18.393Z,99.99
2016-09-28T01:33:18.415Z,99.99
2016-09-28T01:34:18.438Z,99.99
2016-09-28T01:35:18.398Z,99.99
2016-09-28T01:36:18.434Z,99.99
2016-09-28T01:37:18.413Z,99.99
2016-09-28T01:38:18.407Z,99.99
2016-09-28T01:39:18.412Z,99.99
2016-09-28T01:40:18.421Z,99.99
2016-09-28T01:41:18.408Z,99.99
2016-09-28T01:42:18.422Z,99.99
2016-09-28T01:43:18.410Z,99.99
2016-09-28T01:44:18.409Z,99.99
2016-09-28T01:45:18.437Z,99.99
2016-09-28T01:46:18.403Z,99.99
2016-09-28T01:47:18.416Z,99.99
2016-09-28T01:48:18.412Z,99.99
2016-09-28T01:49:18.405Z,99.99
2016-09-28T01:50:18.481Z,99.99
2016-09-28T01:51:18.417Z,99.99
2016-09-28T01:52:18.427Z,99.99
2016-09-28T01:53:18.417Z,99.99
2016-09-28T01:54:18.423Z,99.99
2016-09-28T01:55:18.439Z,99.99
2016-09-28T01:56:18.455Z,99.99
2016-09-28T01:57:18.415Z,99.99
2016-09-28T01:58:18.407Z,99.99
2016-09-28T01:59:18.440Z,99.99
2016-09-28T02:00:18.422Z,99.99
2016-09-28T02:01:18.440Z,99.99
2016-09-28T02:02:18.449Z,99.99
2016-09-28T02:03:18.407Z,99.99
2016-09-28T02:04:18.417Z,99.99
2016-09-28T02:05:18.440Z,99.99
2016-09-28T02:06:18.448Z,99.99
2016-09-28T02:07:18.481Z,99.99
2016-09-28T02:08:18.439Z,99.99
2016-09-28T02:09:18.440Z,99.99
2016-09-28T02:10:18.435Z,99.99
2016-09-28T02:11:18.480Z,99.99
2016-09-28T02:12:18.443Z,99.99
2016-09-28T02:13:18.478Z,99.99
2016-09-28T02:14:18.448Z,99.99
2016-09-28T02:15:18.447Z,99.99
2016-09-28T02:16:18.476Z,99.99
2016-09-28T02:17:18.504Z,99.99
2016-09-28T02:18:18.466Z,99.99
2016-09-28T02:19:18.434Z,99.99
2016-09-28T02:20:18.447Z,99.99
2016-09-28T02:21:18.436Z,99.99
2016-09-28T02:22:18.471Z,99.99
2016-09-28T02:23:18.471Z,99.99
2016-09-28T02:24:18.488Z,99.99
2016-09-28T02:25:18.484Z,99.99
2016-09-28T02:26:18.466Z,99.99
2016-09-28T02:27:18.489Z,99.99
2016-09-28T02:28:18.467Z,99.99
2016-09-28T02:29:18.460Z,99.99
2016-09-28T02:30:18.462Z,99.99
2016-09-28T02:31:18.442Z,99.99
2016-09-28T02:32:18.464Z,99.99
2016-09-28T02:33:18.472Z,99.99
2016-09-28T02:34:18.450Z,99.99
2016-09-28T02:35:18.469Z,99.96
2016-09-28T02:36:18.477Z,99.96
2016-09-28T02:37:18.480Z,99.86
2016-09-28T02:38:18.471Z,99.99
2016-09-28T02:39:18.470Z,99.96
2016-09-28T02:40:18.461Z,99.99
2016-09-28T02:41:18.462Z,99.96
2016-09-28T02:42:18.475Z,99.96
2016-09-28T02:43:18.483Z,99.99
2016-09-28T02:44:18.487Z,99.99
2016-09-28T02:45:18.467Z,99.86
2016-09-28T02:46:18.490Z,99.99
2016-09-28T02:47:18.503Z,99.99
2016-09-28T02:48:18.482Z,99.99
2016-09-28T02:49:18.490Z,99.99
2016-09-28T02:50:18.485Z,99.99
2016-09-28T02:51:18.480Z,99.99
2016-09-28T02:52:18.502Z,99.99
2016-09-28T02:53:18.474Z,99.14
2016-09-28T02:54:18.490Z,99.43
2016-09-28T02:55:18.481Z,99.43
2016-09-28T02:56:18.476Z,99.04
2016-09-28T02:57:18.482Z,99.04
2016-09-28T02:58:18.474Z,98.57
2016-09-28T02:59:18.497Z,98.85
2016-09-28T03:00:18.474Z,99.24
2016-09-28T03:01:18.493Z,98.09
2016-09-28T03:02:18.487Z,98.09
2016-09-28T03:03:18.493Z,97.71
2016-09-28T03:04:18.472Z,97.42
2016-09-28T03:05:18.491Z,96.94
2016-09-28T03:06:18.501Z,96.47
2016-09-28T03:07:18.494Z,96.56
2016-09-28T03:08:18.513Z,96.18
2016-09-28T03:09:18.482Z,96.03
2016-09-28T03:10:18.483Z,95.94
2016-09-28T03:11:18.489Z,95.84
2016-09-28T03:12:18.498Z,95.17
2016-09-28T03:13:18.520Z,95.12
2016-09-28T03:14:18.497Z,95.03
2016-09-28T03:15:18.498Z,95.12
2016-09-28T03:16:18.507Z,94.74
2016-09-28T03:17:18.529Z,95.22
2016-09-28T03:18:18.535Z,94.65
2016-09-28T03:19:18.495Z,95.03
2016-09-28T03:20:18.500Z,95.03
2016-09-28T03:21:18.516Z,94.07
2016-09-28T03:22:18.513Z,94.26
2016-09-28T03:23:18.536Z,94.46
2016-09-28T03:24:18.520Z,94.46
2016-09-28T03:25:18.545Z,94.84
2016-09-28T03:26:18.498Z,94.46
2016-09-28T03:27:18.530Z,94.26
2016-09-28T03:28:18.511Z,94.36
2016-09-28T03:29:18.505Z,93.31
2016-09-28T03:30:18.527Z,93.4
2016-09-28T03:31:18.520Z,93.98
2016-09-28T03:32:18.534Z,93.79
2016-09-28T03:33:18.556Z,94.17
2016-09-28T03:34:18.563Z,94.07
2016-09-28T03:35:18.545Z,94.36
2016-09-28T03:36:18.528Z,93.98
2016-09-28T03:37:18.524Z,93.69
2016-09-28T03:38:18.559Z,93.4
2016-09-28T03:39:18.523Z,93.4
2016-09-28T03:40:18.501Z,93.21
2016-09-28T03:41:18.488Z,93.21
2016-09-28T03:42:18.530Z,93.12
2016-09-28T03:43:18.523Z,92.83
2016-09-28T03:44:18.536Z,92.93
2016-09-28T03:45:18.530Z,92.93
2016-09-28T03:46:18.526Z,92.45
2016-09-28T03:47:18.529Z,92.35
2016-09-28T03:48:18.528Z,92.64
2016-09-28T03:49:18.543Z,92.54
2016-09-28T03:50:18.555Z,92.83
2016-09-28T03:51:18.559Z,92.64
2016-09-28T03:52:18.536Z,92.64
2016-09-28T03:53:18.540Z,92.07
2016-09-28T03:54:18.543Z,91.97
2016-09-28T03:55:18.555Z,92.64
2016-09-28T03:56:18.556Z,92.64
2016-09-28T03:57:18.549Z,92.54
2016-09-28T03:58:18.516Z,92.25
2016-09-28T03:59:18.544Z,92.25
2016-09-28T04:00:18.527Z,91.78
2016-09-28T04:01:18.523Z,91.78
2016-09-28T04:02:18.553Z,91.3
2016-09-28T04:03:18.532Z,91.68
2016-09-28T04:04:18.548Z,91.78
2016-09-28T04:05:18.542Z,92.16
2016-09-28T04:06:18.520Z,92.16
2016-09-28T04:07:18.557Z,91.88
2016-09-28T04:08:18.561Z,91.88
2016-09-28T04:09:18.565Z,91.11
2016-09-28T04:10:23.157Z,91.68
2016-09-28T04:11:22.936Z,90.82
2016-09-28T04:12:23.902Z,91.78
2016-09-28T04:13:21.086Z,91.49
2016-09-28T04:14:18.565Z,91.11
2016-09-28T04:15:18.559Z,91.11
2016-09-28T04:16:23.868Z,90.92
2016-09-28T04:17:23.957Z,91.02
2016-09-28T04:18:23.997Z,91.49
2016-09-28T04:19:23.534Z,91.11
2016-09-28T04:20:23.225Z,91.88
2016-09-28T04:21:23.918Z,91.49
2016-09-28T04:22:19.027Z,90.92
2016-09-28T04:23:19.077Z,90.73
2016-09-28T04:24:18.574Z,91.3
2016-09-28T04:25:18.571Z,91.68
2016-09-28T04:26:18.572Z,91.2
2016-09-28T04:27:18.562Z,90.63
2016-09-28T04:28:18.565Z,91.2
2016-09-28T04:29:18.562Z,91.2
2016-09-28T04:30:19.556Z,92.83
2016-09-28T04:31:18.559Z,91.88
2016-09-28T04:32:18.565Z,91.3
2016-09-28T04:33:18.594Z,91.02
2016-09-28T04:34:18.573Z,90.34
2016-09-28T04:35:18.577Z,90.82
2016-09-28T04:36:18.578Z,91.59
2016-09-28T04:37:18.552Z,91.3
2016-09-28T04:38:18.578Z,91.25
2016-09-28T04:39:18.572Z,90.67
2016-09-28T04:40:19.119Z,91.16
2016-09-28T04:41:18.574Z,90.58
2016-09-28T04:42:18.588Z,90.48
2016-09-28T04:43:18.552Z,89.81
2016-09-28T04:44:18.577Z,90.2
2016-09-28T04:45:18.592Z,89.72
2016-09-28T04:46:18.585Z,90.3
2016-09-28T04:47:18.557Z,90.01
2016-09-28T04:48:18.581Z,90.48
2016-09-28T04:49:18.577Z,89.24
2016-09-28T04:50:18.598Z,89.24
2016-09-28T04:51:18.600Z,90.3
2016-09-28T04:52:18.576Z,89.58
2016-09-28T04:53:18.573Z,88.81
2016-09-28T04:54:18.620Z,88.43
2016-09-28T04:55:19.569Z,89.19
2016-09-28T04:56:18.575Z,88.43
2016-09-28T04:57:18.589Z,88.04
2016-09-28T04:58:18.580Z,88.23
2016-09-28T04:59:18.604Z,87.37
2016-09-28T05:00:18.594Z,86.99
2016-09-28T05:01:18.617Z,87.37
2016-09-28T05:02:18.593Z,87.37
2016-09-28T05:03:18.597Z,87.08
2016-09-28T05:04:18.599Z,86.61
2016-09-28T05:05:18.574Z,86.74
2016-09-28T05:06:18.642Z,87.13
2016-09-28T05:07:18.605Z,87.41
2016-09-28T05:08:18.591Z,87.23
2016-09-28T05:09:18.588Z,86.27
2016-09-28T05:10:18.594Z,85.69
2016-09-28T05:11:18.616Z,85.88
2016-09-28T05:12:18.606Z,85.88
2016-09-28T05:13:18.610Z,86.27
2016-09-28T05:14:18.601Z,85.69
2016-09-28T05:15:18.595Z,86.27
2016-09-28T05:16:18.606Z,85.69
2016-09-28T05:17:18.591Z,85.5
2016-09-28T05:18:18.616Z,85.41
2016-09-28T05:19:18.607Z,85.98
2016-09-28T05:20:18.598Z,85.79
2016-09-28T05:21:18.617Z,85.12
2016-09-28T05:22:18.609Z,85.41
2016-09-28T05:23:18.615Z,86.27
2016-09-28T05:24:18.604Z,85.79
2016-09-28T05:25:18.587Z,85.88
2016-09-28T05:26:18.615Z,85.41
2016-09-28T05:27:18.628Z,84.92
2016-09-28T05:28:18.608Z,85.98
2016-09-28T05:29:18.605Z,84.78
2016-09-28T05:30:18.616Z,84.74
2016-09-28T05:31:18.645Z,84.58
2016-09-28T05:32:18.621Z,84.88
2016-09-28T05:33:18.612Z,84.78
2016-09-28T05:34:18.621Z,84.58
2016-09-28T05:35:18.618Z,85.45
2016-09-28T05:36:18.629Z,85.16
2016-09-28T05:37:18.626Z,84.78
2016-09-28T05:38:18.647Z,84.68
2016-09-28T05:39:18.622Z,84.88
2016-09-28T05:40:18.658Z,84.2
2016-09-28T05:41:18.645Z,84.78
2016-09-28T05:42:18.657Z,84.88
2016-09-28T05:43:18.651Z,84.78
2016-09-28T05:44:18.644Z,84.39
2016-09-28T05:45:18.651Z,84.2
2016-09-28T05:46:18.686Z,84.11
2016-09-28T05:47:18.642Z,84.88
2016-09-28T05:48:18.649Z,84.39
2016-09-28T05:49:18.655Z,84.39
2016-09-28T05:50:18.638Z,84.58
2016-09-28T05:51:18.699Z,84.39
2016-09-28T05:52:18.658Z,84.68
2016-09-28T05:53:18.675Z,84.49
2016-09-28T05:54:18.697Z,84.58
2016-09-28T05:55:18.618Z,84.01
2016-09-28T05:56:18.673Z,84.11
2016-09-28T05:57:18.633Z,84.2
2016-09-28T05:58:18.638Z,84.58
2016-09-28T05:59:18.622Z,84.58
2016-09-28T06:00:18.629Z,84.11
2016-09-28T06:01:18.631Z,84.3
2016-09-28T06:02:18.672Z,84.05
2016-09-28T06:03:18.633Z,84.01
2016-09-28T06:04:18.623Z,84.2
2016-09-28T06:05:18.656Z,83.92
2016-09-28T06:06:18.658Z,83.92
2016-09-28T06:07:18.666Z,83.48
2016-09-28T06:08:18.651Z,83
2016-09-28T06:09:18.645Z,83.29
2016-09-28T06:10:18.651Z,83.38
2016-09-28T06:11:18.653Z,83
2016-09-28T06:12:18.659Z,83.09
2016-09-28T06:13:18.699Z,82.81
2016-09-28T06:14:18.644Z,82.42
2016-09-28T06:15:18.682Z,82.62
2016-09-28T06:16:18.658Z,82.62
2016-09-28T06:17:18.683Z,82.14
2016-09-28T06:18:18.673Z,82.37
2016-09-28T06:19:18.646Z,82.65
2016-09-28T06:20:18.709Z,81.75
2016-09-28T06:21:18.645Z,82.08
2016-09-28T06:22:18.689Z,82.65
2016-09-28T06:23:18.665Z,82.37
2016-09-28T06:24:18.650Z,81.56
2016-09-28T06:25:18.661Z,81.51
2016-09-28T06:26:18.685Z,81.7
2016-09-28T06:27:18.679Z,82.37
2016-09-28T06:28:18.667Z,81.79
2016-09-28T06:29:18.667Z,82.08
2016-09-28T06:30:18.657Z,82.56
2016-09-28T06:31:18.697Z,81.98
2016-09-28T06:32:18.677Z,82.46
2016-09-28T06:33:18.721Z,81.98
2016-09-28T06:34:18.722Z,82.46
2016-09-28T06:35:18.654Z,82.46
2016-09-28T06:36:18.735Z,82.46
2016-09-28T06:37:18.850Z,82.27
2016-09-28T06:38:18.850Z,82.46
2016-09-28T06:39:18.687Z,82.65
2016-09-28T06:40:18.697Z,83.23
2016-09-28T06:41:18.665Z,83.04
2016-09-28T06:42:18.657Z,82.75
2016-09-28T06:43:18.731Z,83.61
2016-09-28T06:44:18.656Z,83.71
2016-09-28T06:45:18.800Z,83.42
2016-09-28T06:46:18.693Z,83.23
2016-09-28T06:47:18.675Z,83.23
2016-09-28T06:48:18.728Z,83.14
2016-09-28T06:49:18.721Z,83.81
2016-09-28T06:50:18.673Z,83.52
2016-09-28T06:51:18.691Z,83.47
2016-09-28T06:52:18.705Z,83.56
2016-09-28T06:53:19.755Z,83.47
2016-09-28T06:54:18.697Z,83.65
2016-09-28T06:55:18.688Z,83.56
2016-09-28T06:56:18.694Z,84.42
2016-09-28T06:57:18.673Z,84.04
2016-09-28T06:58:18.710Z,83.94
2016-09-28T06:59:18.693Z,84.52
2016-09-28T07:00:18.694Z,84.61
2016-09-28T07:01:18.937Z,84.71
2016-09-28T07:02:18.766Z,84.33
2016-09-28T07:03:18.741Z,84.52
2016-09-28T07:04:18.696Z,85
2016-09-28T07:05:18.684Z,84.61
2016-09-28T07:06:18.692Z,84.61
2016-09-28T07:07:18.752Z,85.1
2016-09-28T07:08:18.716Z,85.1
2016-09-28T07:09:18.710Z,85.1
2016-09-28T07:10:18.716Z,85.1
2016-09-28T07:11:18.713Z,85.28
2016-09-28T07:12:18.707Z,85.1
2016-09-28T07:13:18.727Z,85.38
2016-09-28T07:14:18.699Z,85.96
2016-09-28T07:15:18.782Z,85.96
2016-09-28T07:16:18.714Z,85.96
2016-09-28T07:17:18.754Z,86.05
2016-09-28T07:18:18.747Z,86.05
2016-09-28T07:19:18.736Z,86.34
2016-09-28T07:20:18.703Z,86.72
2016-09-28T07:21:18.709Z,87.01
2016-09-28T07:22:18.735Z,87.05
2016-09-28T07:23:18.706Z,87.35
2016-09-28T07:24:18.734Z,88.55
2016-09-28T07:25:18.722Z,88.59
2016-09-28T07:26:18.734Z,88.69
2016-09-28T07:27:18.723Z,89.26
2016-09-28T07:28:18.741Z,90.03
2016-09-28T07:29:18.758Z,90.42
2016-09-28T07:30:18.761Z,90.9
2016-09-28T07:31:18.753Z,91.38
2016-09-28T07:32:18.766Z,91.66
2016-09-28T07:33:18.735Z,91.66
2016-09-28T07:34:18.742Z,91.96
2016-09-28T07:35:18.728Z,92.05
2016-09-28T07:36:18.726Z,91.96
2016-09-28T07:37:18.734Z,92.63
2016-09-28T07:38:18.741Z,93.01
2016-09-28T07:39:18.765Z,93.2
2016-09-28T07:40:18.752Z,93.2
2016-09-28T07:41:18.759Z,93.25
2016-09-28T07:42:18.745Z,93.39
2016-09-28T07:43:18.763Z,94.26
2016-09-28T07:44:18.784Z,94.49
2016-09-28T07:45:18.753Z,94.26
2016-09-28T07:46:18.757Z,93.77
2016-09-28T07:47:18.739Z,94.07
2016-09-28T07:48:18.763Z,94.64
2016-09-28T07:49:18.770Z,93.92
2016-09-28T07:50:18.748Z,94.07
2016-09-28T07:51:18.738Z,94.26
2016-09-28T07:52:18.768Z,93.92
2016-09-28T07:53:18.976Z,94.4
2016-09-28T07:54:18.837Z,93.63
2016-09-28T07:55:18.774Z,94.21
2016-09-28T07:56:18.762Z,94.01
2016-09-28T07:57:18.786Z,95.17
2016-09-28T07:58:18.753Z,94.98
2016-09-28T07:59:18.761Z,95.84
2016-09-28T08:00:18.738Z,96.32
2016-09-28T08:01:18.761Z,96.22
2016-09-28T08:02:18.795Z,96.42
2016-09-28T08:03:18.762Z,95.75
2016-09-28T08:04:18.794Z,95.17
2016-09-28T08:05:18.768Z,94.31
2016-09-28T08:06:18.747Z,94.49
2016-09-28T08:07:18.753Z,95.12
2016-09-28T08:08:18.776Z,93.96
2016-09-28T08:09:18.781Z,93.54
2016-09-28T08:10:18.794Z,94.06
2016-09-28T08:11:18.796Z,93.58
2016-09-28T08:12:18.760Z,93.68
2016-09-28T08:13:18.768Z,93.58
2016-09-28T08:14:18.789Z,93.29
2016-09-28T08:15:18.769Z,93.58
2016-09-28T08:16:18.787Z,92.91
2016-09-28T08:17:18.790Z,93.1
2016-09-28T08:18:18.772Z,93.49
2016-09-28T08:19:18.808Z,93.39
2016-09-28T08:20:18.788Z,93.49
2016-09-28T08:21:18.801Z,94.06
2016-09-28T08:22:18.778Z,93.58
2016-09-28T08:23:18.776Z,94.06
2016-09-28T08:24:18.820Z,93.96
2016-09-28T08:25:18.814Z,93.49
2016-09-28T08:26:18.790Z,93.49
2016-09-28T08:27:18.784Z,93.58
2016-09-28T08:28:18.790Z,93.58
2016-09-28T08:29:18.796Z,93.87
2016-09-28T08:30:18.835Z,93.19
2016-09-28T08:31:18.787Z,93.49
2016-09-28T08:32:18.799Z,93.24
2016-09-28T08:33:18.811Z,92.57
2016-09-28T08:34:18.786Z,92.47
2016-09-28T08:35:18.807Z,92.19
2016-09-28T08:36:18.795Z,90.89
2016-09-28T08:37:18.791Z,90.12
2016-09-28T08:38:18.774Z,89.06
2016-09-28T08:39:18.813Z,89.83
2016-09-28T08:40:18.824Z,89.87
2016-09-28T08:41:18.794Z,88.81
2016-09-28T08:42:18.791Z,88.43
2016-09-28T08:43:18.809Z,89.01
2016-09-28T08:44:18.803Z,89.2
2016-09-28T08:45:18.824Z,88.62
2016-09-28T08:46:18.830Z,89.87
2016-09-28T08:47:18.808Z,89.44
2016-09-28T08:48:18.864Z,89.73
2016-09-28T08:49:18.877Z,90.12
2016-09-28T08:50:18.834Z,90.59
2016-09-28T08:51:18.801Z,90.21
2016-09-28T08:52:18.823Z,90.21
2016-09-28T08:53:18.822Z,89.92
2016-09-28T08:54:18.796Z,89.83
2016-09-28T08:55:18.847Z,89.83
2016-09-28T08:56:18.833Z,89.49
2016-09-28T08:57:18.815Z,89.2
2016-09-28T08:58:18.816Z,89.29
2016-09-28T08:59:18.809Z,89.29
2016-09-28T09:00:18.824Z,89.29
2016-09-28T09:01:18.858Z,89.39
2016-09-28T09:02:18.825Z,89.39
2016-09-28T09:03:18.793Z,89.01
2016-09-28T09:04:18.794Z,89.2
2016-09-28T09:05:18.813Z,89.01
2016-09-28T09:06:18.826Z,89.1
2016-09-28T09:07:18.883Z,89.01
2016-09-28T09:08:18.843Z,88.91
2016-09-28T09:09:18.816Z,89.87
2016-09-28T09:10:18.829Z,89.01
2016-09-28T09:11:18.824Z,88.81
2016-09-28T09:12:18.821Z,89.58
2016-09-28T09:13:18.827Z,88.87
2016-09-28T09:14:18.835Z,88.62
2016-09-28T09:15:18.826Z,89.2
2016-09-28T09:16:18.846Z,88.53
2016-09-28T09:17:18.854Z,88.62
2016-09-28T09:18:18.829Z,88.14
2016-09-28T09:19:18.833Z,88.14
2016-09-28T09:20:18.846Z,87.51
2016-09-28T09:21:18.867Z,87.22
2016-09-28T09:22:18.835Z,86.74
2016-09-28T09:23:18.857Z,85.68
2016-09-28T09:24:18.837Z,85.2
2016-09-28T09:25:18.838Z,85.3
2016-09-28T09:26:19.076Z,84.66
2016-09-28T09:27:18.931Z,84.56
2016-09-28T09:28:18.893Z,84.22
2016-09-28T09:29:18.906Z,84.03
2016-09-28T09:30:18.941Z,83.64
2016-09-28T09:31:18.869Z,83.55
2016-09-28T09:32:18.877Z,83.64
2016-09-28T09:33:18.945Z,83.55
2016-09-28T09:34:18.858Z,84.18
2016-09-28T09:35:18.858Z,84.61
2016-09-28T09:36:18.912Z,84.61
2016-09-28T09:37:19.028Z,83.84
2016-09-28T09:38:18.924Z,84.47
2016-09-28T09:39:18.893Z,83.84
2016-09-28T09:40:18.854Z,83.64
2016-09-28T09:41:19.963Z,83.64
2016-09-28T09:42:18.863Z,83.74
2016-09-28T09:43:18.853Z,83.74
2016-09-28T09:44:18.874Z,84.03
2016-09-28T09:45:18.970Z,83.8
2016-09-28T09:46:18.888Z,84.03
2016-09-28T09:47:18.869Z,84.03
2016-09-28T09:48:18.867Z,83.51
2016-09-28T09:49:18.938Z,83.55
2016-09-28T09:50:18.857Z,82.97
2016-09-28T09:51:18.870Z,83.07
2016-09-28T09:52:18.892Z,83.26
2016-09-28T09:53:18.861Z,82.59
2016-09-28T09:54:18.869Z,82.87
2016-09-28T09:55:18.858Z,82.97
2016-09-28T09:56:18.954Z,82.68
2016-09-28T09:57:18.889Z,83.16
2016-09-28T09:58:18.891Z,82.87
2016-09-28T09:59:18.851Z,82.97
2016-09-28T10:00:18.888Z,82.1
2016-09-28T10:01:18.918Z,81.81
2016-09-28T10:02:18.890Z,82.78
2016-09-28T10:03:18.884Z,82.78
2016-09-28T10:04:18.892Z,82.97
2016-09-28T10:05:18.896Z,82.97
2016-09-28T10:06:18.904Z,82.68
2016-09-28T10:07:18.887Z,82.78
2016-09-28T10:08:18.875Z,82.53
2016-09-28T10:09:18.899Z,82.39
2016-09-28T10:10:18.874Z,82.1
2016-09-28T10:11:18.894Z,81.43
2016-09-28T10:12:18.885Z,81.52
2016-09-28T10:13:18.888Z,81.62
2016-09-28T10:14:18.916Z,82.1
2016-09-28T10:15:19.524Z,82.39
2016-09-28T10:16:18.923Z,82.29
2016-09-28T10:17:18.930Z,82.49
2016-09-28T10:18:18.888Z,82.78
2016-09-28T10:19:18.900Z,83.16
2016-09-28T10:20:18.891Z,83.07
2016-09-28T10:21:18.923Z,82.68
2016-09-28T10:22:18.909Z,82.97
2016-09-28T10:23:18.900Z,82.97
2016-09-28T10:24:18.897Z,82.49
2016-09-28T10:25:18.938Z,82.49
2016-09-28T10:26:18.917Z,82.87
2016-09-28T10:27:18.907Z,83.07
2016-09-28T10:28:18.901Z,84.28
2016-09-28T10:29:18.910Z,84.37
2016-09-28T10:30:18.907Z,84.18
2016-09-28T10:31:18.930Z,83.99
2016-09-28T10:32:18.896Z,84.09
2016-09-28T10:33:18.897Z,84.47
2016-09-28T10:34:18.933Z,83.8
2016-09-28T10:35:18.917Z,84.52
2016-09-28T10:36:18.929Z,84.32
2016-09-28T10:37:18.926Z,84.7
2016-09-28T10:38:18.913Z,83.45
2016-09-28T10:39:18.910Z,82.87
2016-09-28T10:40:18.894Z,83.26
2016-09-28T10:41:18.917Z,83.07
2016-09-28T10:42:18.910Z,82.87
2016-09-28T10:43:18.915Z,82.78
2016-09-28T10:44:18.923Z,82.2
2016-09-28T10:45:18.929Z,81.81
2016-09-28T10:46:18.937Z,82.49
2016-09-28T10:47:18.917Z,82.2
2016-09-28T10:48:18.919Z,82.1
2016-09-28T10:49:18.914Z,82.59
2016-09-28T10:50:18.945Z,82.78
2016-09-28T10:51:18.926Z,82.97
2016-09-28T10:52:18.921Z,82.78
2016-09-28T10:53:18.912Z,82.49
2016-09-28T10:54:18.915Z,82.39
2016-09-28T10:55:18.946Z,82.49
2016-09-28T10:56:18.946Z,82.59
2016-09-28T10:57:18.908Z,82.49
2016-09-28T10:58:18.917Z,82.29
2016-09-28T10:59:18.945Z,81.81
2016-09-28T11:00:18.923Z,81.72
2016-09-28T11:01:18.949Z,80.69
2016-09-28T11:02:18.925Z,81.04
2016-09-28T11:03:18.911Z,81.43
2016-09-28T11:04:18.946Z,81.52
2016-09-28T11:05:18.955Z,81.33
2016-09-28T11:06:18.948Z,81.04
2016-09-28T11:07:18.959Z,80.51
2016-09-28T11:08:18.957Z,80.22
2016-09-28T11:09:18.926Z,80.99
2016-09-28T11:10:18.956Z,80.37
2016-09-28T11:11:18.953Z,80.22
2016-09-28T11:12:18.929Z,80.22
2016-09-28T11:13:18.962Z,80.51
2016-09-28T11:14:18.949Z,80.22
2016-09-28T11:15:18.945Z,79.74
2016-09-28T11:16:18.987Z,79.06
2016-09-28T11:17:18.949Z,79.35
2016-09-28T11:18:18.935Z,79.83
2016-09-28T11:19:18.958Z,79.06
2016-09-28T11:20:18.965Z,79.16
2016-09-28T11:21:18.954Z,79.29
2016-09-28T11:22:18.975Z,79.29
2016-09-28T11:23:18.969Z,78.81
2016-09-28T11:24:18.962Z,78.81
2016-09-28T11:25:18.968Z,77.46
2016-09-28T11:26:18.979Z,77.84
2016-09-28T11:27:18.959Z,77.84
2016-09-28T11:28:18.964Z,77.75
2016-09-28T11:29:18.964Z,78.52
2016-09-28T11:30:18.958Z,78.03
2016-09-28T11:31:18.963Z,77.65
2016-09-28T11:32:18.958Z,77.94
2016-09-28T11:33:18.975Z,77.65
2016-09-28T11:34:18.960Z,77.84
2016-09-28T11:35:18.989Z,77.94
2016-09-28T11:36:18.980Z,77.46
2016-09-28T11:37:18.961Z,77.36
2016-09-28T11:38:18.981Z,77.65
2016-09-28T11:39:18.959Z,77.78
2016-09-28T11:40:18.977Z,77.36
2016-09-28T11:41:18.971Z,77.4
2016-09-28T11:42:18.972Z,77.3
2016-09-28T11:43:18.976Z,77.69
2016-09-28T11:44:18.962Z,76.92
2016-09-28T11:45:18.968Z,77.01
2016-09-28T11:46:19.070Z,77.3
2016-09-28T11:47:18.996Z,76.53
2016-09-28T11:48:18.977Z,76.68
2016-09-28T11:49:18.995Z,77.17
2016-09-28T11:50:18.987Z,77.69
2016-09-28T11:51:18.991Z,77.11
2016-09-28T11:52:19.002Z,77.11
2016-09-28T11:53:18.997Z,76.72
2016-09-28T11:54:18.991Z,76.63
2016-09-28T11:55:19.013Z,76.43
2016-09-28T11:56:19.008Z,76.24
2016-09-28T11:57:19.006Z,76.15
2016-09-28T11:58:19.039Z,75.47
2016-09-28T11:59:19.003Z,75.47
2016-09-28T12:00:19.035Z,76.34
2016-09-28T12:01:19.041Z,76.34
2016-09-28T12:02:19.019Z,75.95
2016-09-28T12:03:19.042Z,75.85
2016-09-28T12:04:19.038Z,75.57
2016-09-28T12:05:19.035Z,75.57
2016-09-28T12:06:19.069Z,75.18
2016-09-28T12:07:19.041Z,75.47
2016-09-28T12:08:19.074Z,75.27
2016-09-28T12:09:19.018Z,75.31
2016-09-28T12:10:19.015Z,74.35
2016-09-28T12:11:19.003Z,74.54
2016-09-28T12:12:18.997Z,74.16
2016-09-28T12:13:19.018Z,74.77
2016-09-28T12:14:18.996Z,73.71
2016-09-28T12:15:19.055Z,73.9
2016-09-28T12:16:19.019Z,73.52
2016-09-28T12:17:19.041Z,73.8
2016-09-28T12:18:19.056Z,72.94
2016-09-28T12:19:19.014Z,72.94
2016-09-28T12:20:19.060Z,73.61
2016-09-28T12:21:19.029Z,73.22
2016-09-28T12:22:19.001Z,73.42
2016-09-28T12:23:19.015Z,74
2016-09-28T12:24:19.035Z,73.86
2016-09-28T12:25:19.023Z,74.29
2016-09-28T12:26:19.022Z,74.1
2016-09-28T12:27:19.055Z,73.9
2016-09-28T12:28:19.089Z,73.71
2016-09-28T12:29:19.053Z,73.86
2016-09-28T12:30:18.999Z,73.8
2016-09-28T12:31:20.074Z,73.38
2016-09-28T12:32:19.018Z,73.61
2016-09-28T12:33:19.070Z,72.74
2016-09-28T12:34:19.048Z,72.39
2016-09-28T12:35:19.045Z,72.74
2016-09-28T12:36:19.046Z,72.64
2016-09-28T12:37:19.019Z,72.64
2016-09-28T12:38:19.080Z,72.39
2016-09-28T12:39:19.055Z,72.36
2016-09-28T12:40:19.071Z,72.26
2016-09-28T12:41:19.102Z,71.81
2016-09-28T12:42:19.038Z,71.81
2016-09-28T12:43:19.083Z,72.1
2016-09-28T12:44:19.080Z,72.16
2016-09-28T12:45:19.045Z,72.06
2016-09-28T12:46:19.049Z,71.81
2016-09-28T12:47:19.039Z,71.72
2016-09-28T12:48:19.060Z,72
2016-09-28T12:49:19.041Z,72.55
2016-09-28T12:50:19.100Z,72.2
2016-09-28T12:51:19.053Z,72.1
2016-09-28T12:52:19.070Z,71.58
2016-09-28T12:53:19.109Z,71.62
2016-09-28T12:54:19.105Z,71.62
2016-09-28T12:55:19.111Z,72.16